sensor_id;sensor_type;location;lat;lon;timestamp;temperature;humidity
8539;DHT22;4307;53.868;11.680;2024-03-08T00:02:35;2.00;99.90
8539;DHT22;4307;53.868;11.680;2024-03-08T00:05:02;2.00;99.90
8539;DHT22;4307;53.868;11.680;2024-03-08T00:07:28;2.00;99.90
8539;DHT22;4307;53.868;11.680;2024-03-08T00:09:55;2.00;99.90
8539;DHT22;4307;53.868;11.680;2024-03-08T00:12:23;2.00;99.90
8539;DHT22;4307;53.868;11.680;2024-03-08T00:14:51;2.00;99.90
8539;DHT22;4307;53.868;11.680;2024-03-08T00:17:17;2.00;99.90
8539;DHT22;4307;53.868;11.680;2024-03-08T00:19:44;2.00;99.90
8539;DHT22;4307;53.868;11.680;2024-03-08T00:22:11;2.00;99.90
8539;DHT22;4307;53.868;11.680;2024-03-08T00:24:37;2.00;99.90
8539;DHT22;4307;53.868;11.680;2024-03-08T00:27:04;2.00;99.90
8539;DHT22;4307;53.868;11.680;2024-03-08T00:29:32;2.00;99.90
8539;DHT22;4307;53.868;11.680;2024-03-08T00:31:59;2.00;99.90
8539;DHT22;4307;53.868;11.680;2024-03-08T00:34:26;2.00;99.90
8539;DHT22;4307;53.868;11.680;2024-03-08T00:36:53;2.00;99.90
8539;DHT22;4307;53.868;11.680;2024-03-08T00:39:19;2.00;99.90
8539;DHT22;4307;53.868;11.680;2024-03-08T00:41:46;2.00;99.90
8539;DHT22;4307;53.868;11.680;2024-03-08T00:44:13;2.00;99.90
8539;DHT22;4307;53.868;11.680;2024-03-08T00:46:41;2.00;99.90
8539;DHT22;4307;53.868;11.680;2024-03-08T00:49:08;2.00;99.90
8539;DHT22;4307;53.868;11.680;2024-03-08T00:51:35;2.00;99.90
8539;DHT22;4307;53.868;11.680;2024-03-08T00:54:02;2.00;99.90
8539;DHT22;4307;53.868;11.680;2024-03-08T00:56:28;2.00;99.90
8539;DHT22;4307;53.868;11.680;2024-03-08T00:58:55;1.90;99.90
8539;DHT22;4307;53.868;11.680;2024-03-08T01:01:22;1.90;99.90
8539;DHT22;4307;53.868;11.680;2024-03-08T01:03:51;1.90;99.90
8539;DHT22;4307;53.868;11.680;2024-03-08T01:06:18;1.90;99.90
8539;DHT22;4307;53.868;11.680;2024-03-08T01:08:45;1.90;99.90
8539;DHT22;4307;53.868;11.680;2024-03-08T01:11:13;1.90;99.90
8539;DHT22;4307;53.868;11.680;2024-03-08T01:13:39;1.90;99.90
8539;DHT22;4307;53.868;11.680;2024-03-08T01:16:06;1.80;99.90
8539;DHT22;4307;53.868;11.680;2024-03-08T01:18:33;1.80;99.90
8539;DHT22;4307;53.868;11.680;2024-03-08T01:21:01;1.90;99.90
8539;DHT22;4307;53.868;11.680;2024-03-08T01:23:28;1.90;99.90
8539;DHT22;4307;53.868;11.680;2024-03-08T01:25:55;1.90;99.90
8539;DHT22;4307;53.868;11.680;2024-03-08T01:28:23;1.90;99.90
8539;DHT22;4307;53.868;11.680;2024-03-08T01:30:50;2.00;99.90
8539;DHT22;4307;53.868;11.680;2024-03-08T01:33:21;2.00;99.90
8539;DHT22;4307;53.868;11.680;2024-03-08T01:35:48;2.00;99.90
8539;DHT22;4307;53.868;11.680;2024-03-08T01:38:16;2.10;99.90
8539;DHT22;4307;53.868;11.680;2024-03-08T01:40:42;2.10;99.90
8539;DHT22;4307;53.868;11.680;2024-03-08T01:43:19;2.10;99.90
8539;DHT22;4307;53.868;11.680;2024-03-08T01:45:46;2.10;99.90
8539;DHT22;4307;53.868;11.680;2024-03-08T01:48:14;2.00;99.90
8539;DHT22;4307;53.868;11.680;2024-03-08T01:50:41;2.00;99.90
8539;DHT22;4307;53.868;11.680;2024-03-08T01:53:08;2.00;99.90
8539;DHT22;4307;53.868;11.680;2024-03-08T01:55:38;2.00;99.90
8539;DHT22;4307;53.868;11.680;2024-03-08T01:58:05;2.00;99.90
8539;DHT22;4307;53.868;11.680;2024-03-08T02:00:33;2.00;99.90
8539;DHT22;4307;53.868;11.680;2024-03-08T02:03:01;2.00;99.90
8539;DHT22;4307;53.868;11.680;2024-03-08T02:05:28;2.00;99.90
8539;DHT22;4307;53.868;11.680;2024-03-08T02:07:55;2.00;99.90
8539;DHT22;4307;53.868;11.680;2024-03-08T02:10:22;2.00;99.90
8539;DHT22;4307;53.868;11.680;2024-03-08T02:12:50;2.10;99.90
8539;DHT22;4307;53.868;11.680;2024-03-08T02:15:17;2.10;99.90
8539;DHT22;4307;53.868;11.680;2024-03-08T02:17:45;2.10;99.90
8539;DHT22;4307;53.868;11.680;2024-03-08T02:20:11;2.00;99.90
8539;DHT22;4307;53.868;11.680;2024-03-08T02:22:40;2.00;99.90
8539;DHT22;4307;53.868;11.680;2024-03-08T02:25:08;2.00;99.90
8539;DHT22;4307;53.868;11.680;2024-03-08T02:27:35;2.00;99.90
8539;DHT22;4307;53.868;11.680;2024-03-08T02:30:02;2.00;99.90
8539;DHT22;4307;53.868;11.680;2024-03-08T02:32:30;2.00;99.90
8539;DHT22;4307;53.868;11.680;2024-03-08T02:34:58;2.00;99.90
8539;DHT22;4307;53.868;11.680;2024-03-08T02:37:25;2.00;99.90
8539;DHT22;4307;53.868;11.680;2024-03-08T02:39:55;2.00;99.90
8539;DHT22;4307;53.868;11.680;2024-03-08T02:42:21;2.00;99.90
8539;DHT22;4307;53.868;11.680;2024-03-08T02:44:48;2.00;99.90
8539;DHT22;4307;53.868;11.680;2024-03-08T02:47:15;2.00;99.90
8539;DHT22;4307;53.868;11.680;2024-03-08T02:49:41;1.90;99.90
8539;DHT22;4307;53.868;11.680;2024-03-08T02:52:08;1.90;99.90
8539;DHT22;4307;53.868;11.680;2024-03-08T02:54:35;1.90;99.90
8539;DHT22;4307;53.868;11.680;2024-03-08T02:57:03;1.90;99.90
8539;DHT22;4307;53.868;11.680;2024-03-08T02:59:32;1.90;99.90
8539;DHT22;4307;53.868;11.680;2024-03-08T03:01:59;1.90;99.90
8539;DHT22;4307;53.868;11.680;2024-03-08T03:04:25;1.90;99.90
8539;DHT22;4307;53.868;11.680;2024-03-08T03:06:53;1.90;99.90
8539;DHT22;4307;53.868;11.680;2024-03-08T03:09:20;1.90;99.90
8539;DHT22;4307;53.868;11.680;2024-03-08T03:11:49;1.90;99.90
8539;DHT22;4307;53.868;11.680;2024-03-08T03:14:17;1.90;99.90
8539;DHT22;4307;53.868;11.680;2024-03-08T03:16:44;1.90;99.90
8539;DHT22;4307;53.868;11.680;2024-03-08T03:19:11;1.80;99.90
8539;DHT22;4307;53.868;11.680;2024-03-08T03:21:37;1.80;99.90
8539;DHT22;4307;53.868;11.680;2024-03-08T03:24:05;1.70;99.90
8539;DHT22;4307;53.868;11.680;2024-03-08T03:26:35;1.70;99.90
8539;DHT22;4307;53.868;11.680;2024-03-08T03:29:04;1.60;99.90
8539;DHT22;4307;53.868;11.680;2024-03-08T03:31:32;1.60;99.90
8539;DHT22;4307;53.868;11.680;2024-03-08T03:33:59;1.60;99.90
8539;DHT22;4307;53.868;11.680;2024-03-08T03:36:28;1.60;99.90
8539;DHT22;4307;53.868;11.680;2024-03-08T03:38:55;1.60;99.90
8539;DHT22;4307;53.868;11.680;2024-03-08T03:41:32;1.50;99.90
8539;DHT22;4307;53.868;11.680;2024-03-08T03:43:59;1.50;99.90
8539;DHT22;4307;53.868;11.680;2024-03-08T03:46:26;1.50;99.90
8539;DHT22;4307;53.868;11.680;2024-03-08T03:48:54;1.50;99.90
8539;DHT22;4307;53.868;11.680;2024-03-08T03:51:21;1.50;99.90
8539;DHT22;4307;53.868;11.680;2024-03-08T03:53:48;1.50;99.90
8539;DHT22;4307;53.868;11.680;2024-03-08T03:56:15;1.50;99.90
8539;DHT22;4307;53.868;11.680;2024-03-08T03:58:41;1.50;99.90
8539;DHT22;4307;53.868;11.680;2024-03-08T04:01:08;1.50;99.90
8539;DHT22;4307;53.868;11.680;2024-03-08T04:03:36;1.50;99.90
8539;DHT22;4307;53.868;11.680;2024-03-08T04:06:04;1.50;99.90
8539;DHT22;4307;53.868;11.680;2024-03-08T04:08:31;1.40;99.90
8539;DHT22;4307;53.868;11.680;2024-03-08T04:10:59;1.50;99.90
8539;DHT22;4307;53.868;11.680;2024-03-08T04:13:26;1.40;99.90
8539;DHT22;4307;53.868;11.680;2024-03-08T04:15:53;1.40;99.90
8539;DHT22;4307;53.868;11.680;2024-03-08T04:18:19;1.40;99.90
8539;DHT22;4307;53.868;11.680;2024-03-08T04:20:46;1.30;99.90
8539;DHT22;4307;53.868;11.680;2024-03-08T04:23:15;1.30;99.90
8539;DHT22;4307;53.868;11.680;2024-03-08T04:25:43;1.30;99.90
8539;DHT22;4307;53.868;11.680;2024-03-08T04:28:09;1.30;99.90
8539;DHT22;4307;53.868;11.680;2024-03-08T04:30:37;1.30;99.90
8539;DHT22;4307;53.868;11.680;2024-03-08T04:33:05;1.20;99.90
8539;DHT22;4307;53.868;11.680;2024-03-08T04:35:32;1.20;99.90
8539;DHT22;4307;53.868;11.680;2024-03-08T04:37:59;1.20;99.90
8539;DHT22;4307;53.868;11.680;2024-03-08T04:40:27;1.20;99.90
8539;DHT22;4307;53.868;11.680;2024-03-08T04:42:53;1.20;99.90
8539;DHT22;4307;53.868;11.680;2024-03-08T04:45:20;1.20;99.90
8539;DHT22;4307;53.868;11.680;2024-03-08T04:47:47;1.10;99.90
8539;DHT22;4307;53.868;11.680;2024-03-08T04:50:13;1.10;99.90
8539;DHT22;4307;53.868;11.680;2024-03-08T04:52:40;1.10;99.90
8539;DHT22;4307;53.868;11.680;2024-03-08T04:55:07;1.10;99.90
8539;DHT22;4307;53.868;11.680;2024-03-08T04:57:36;1.10;99.90
8539;DHT22;4307;53.868;11.680;2024-03-08T05:00:03;1.10;99.90
8539;DHT22;4307;53.868;11.680;2024-03-08T05:02:34;1.10;99.90
8539;DHT22;4307;53.868;11.680;2024-03-08T05:05:02;1.20;99.90
8539;DHT22;4307;53.868;11.680;2024-03-08T05:07:31;1.20;99.90
8539;DHT22;4307;53.868;11.680;2024-03-08T05:09:58;1.20;99.90
8539;DHT22;4307;53.868;11.680;2024-03-08T05:12:24;1.20;99.90
8539;DHT22;4307;53.868;11.680;2024-03-08T05:14:52;1.20;99.90
8539;DHT22;4307;53.868;11.680;2024-03-08T05:17:20;1.10;99.90
8539;DHT22;4307;53.868;11.680;2024-03-08T05:19:49;1.10;99.90
8539;DHT22;4307;53.868;11.680;2024-03-08T05:22:16;1.10;99.90
8539;DHT22;4307;53.868;11.680;2024-03-08T05:24:42;1.10;99.90
8539;DHT22;4307;53.868;11.680;2024-03-08T05:27:09;1.00;99.90
8539;DHT22;4307;53.868;11.680;2024-03-08T05:29:36;0.90;99.90
8539;DHT22;4307;53.868;11.680;2024-03-08T05:32:04;0.90;99.90
8539;DHT22;4307;53.868;11.680;2024-03-08T05:34:32;0.90;99.90
8539;DHT22;4307;53.868;11.680;2024-03-08T05:36:59;1.00;99.90
8539;DHT22;4307;53.868;11.680;2024-03-08T05:39:25;1.00;99.90
8539;DHT22;4307;53.868;11.680;2024-03-08T05:41:52;1.00;99.90
8539;DHT22;4307;53.868;11.680;2024-03-08T05:44:20;1.00;99.90
8539;DHT22;4307;53.868;11.680;2024-03-08T05:46:47;1.00;99.90
8539;DHT22;4307;53.868;11.680;2024-03-08T05:49:15;1.10;99.90
8539;DHT22;4307;53.868;11.680;2024-03-08T05:51:41;1.10;99.90
8539;DHT22;4307;53.868;11.680;2024-03-08T05:54:10;1.10;99.90
8539;DHT22;4307;53.868;11.680;2024-03-08T05:56:37;1.10;99.90
8539;DHT22;4307;53.868;11.680;2024-03-08T05:59:04;1.10;99.90
8539;DHT22;4307;53.868;11.680;2024-03-08T06:01:31;1.10;99.90
8539;DHT22;4307;53.868;11.680;2024-03-08T06:03:58;1.20;99.90
8539;DHT22;4307;53.868;11.680;2024-03-08T06:06:26;1.20;99.90
8539;DHT22;4307;53.868;11.680;2024-03-08T06:08:53;1.20;99.90
8539;DHT22;4307;53.868;11.680;2024-03-08T06:11:22;1.20;99.90
8539;DHT22;4307;53.868;11.680;2024-03-08T06:13:49;1.20;99.90
8539;DHT22;4307;53.868;11.680;2024-03-08T06:16:16;1.20;99.90
8539;DHT22;4307;53.868;11.680;2024-03-08T06:18:42;1.10;99.90
8539;DHT22;4307;53.868;11.680;2024-03-08T06:21:09;1.00;99.90
8539;DHT22;4307;53.868;11.680;2024-03-08T06:23:38;1.00;99.90
8539;DHT22;4307;53.868;11.680;2024-03-08T06:26:05;1.00;99.90
8539;DHT22;4307;53.868;11.680;2024-03-08T06:28:32;1.00;99.90
8539;DHT22;4307;53.868;11.680;2024-03-08T06:31:00;1.00;99.90
8539;DHT22;4307;53.868;11.680;2024-03-08T06:33:27;1.00;99.90
8539;DHT22;4307;53.868;11.680;2024-03-08T06:35:54;1.00;99.90
8539;DHT22;4307;53.868;11.680;2024-03-08T06:38:22;1.00;99.90
8539;DHT22;4307;53.868;11.680;2024-03-08T06:40:50;1.00;99.90
8539;DHT22;4307;53.868;11.680;2024-03-08T06:43:17;1.00;99.90
8539;DHT22;4307;53.868;11.680;2024-03-08T06:45:44;1.10;99.90
8539;DHT22;4307;53.868;11.680;2024-03-08T06:48:14;1.10;99.90
8539;DHT22;4307;53.868;11.680;2024-03-08T06:50:40;1.20;99.90
8539;DHT22;4307;53.868;11.680;2024-03-08T06:53:07;1.20;99.90
8539;DHT22;4307;53.868;11.680;2024-03-08T06:55:34;1.20;99.90
8539;DHT22;4307;53.868;11.680;2024-03-08T06:58:02;1.20;99.90
8539;DHT22;4307;53.868;11.680;2024-03-08T07:00:28;1.10;99.90
8539;DHT22;4307;53.868;11.680;2024-03-08T07:02:55;1.10;99.90
8539;DHT22;4307;53.868;11.680;2024-03-08T07:05:26;1.20;99.90
8539;DHT22;4307;53.868;11.680;2024-03-08T07:07:53;1.30;99.90
8539;DHT22;4307;53.868;11.680;2024-03-08T07:10:20;1.40;99.90
8539;DHT22;4307;53.868;11.680;2024-03-08T07:12:49;1.50;99.90
8539;DHT22;4307;53.868;11.680;2024-03-08T07:15:17;1.50;99.90
8539;DHT22;4307;53.868;11.680;2024-03-08T07:17:45;1.60;99.90
8539;DHT22;4307;53.868;11.680;2024-03-08T07:20:12;1.60;99.90
8539;DHT22;4307;53.868;11.680;2024-03-08T07:22:40;1.60;99.90
8539;DHT22;4307;53.868;11.680;2024-03-08T07:25:08;1.50;99.90
8539;DHT22;4307;53.868;11.680;2024-03-08T07:27:46;1.50;99.90
8539;DHT22;4307;53.868;11.680;2024-03-08T07:30:13;1.50;99.90
8539;DHT22;4307;53.868;11.680;2024-03-08T07:33:01;1.60;99.90
8539;DHT22;4307;53.868;11.680;2024-03-08T07:35:28;1.70;99.90
8539;DHT22;4307;53.868;11.680;2024-03-08T07:37:54;1.70;99.90
8539;DHT22;4307;53.868;11.680;2024-03-08T07:40:21;1.80;99.90
8539;DHT22;4307;53.868;11.680;2024-03-08T07:42:48;1.90;99.90
8539;DHT22;4307;53.868;11.680;2024-03-08T07:45:15;2.00;99.90
8539;DHT22;4307;53.868;11.680;2024-03-08T07:47:42;2.10;99.90
8539;DHT22;4307;53.868;11.680;2024-03-08T07:50:10;2.20;99.90
8539;DHT22;4307;53.868;11.680;2024-03-08T07:52:41;2.30;99.90
8539;DHT22;4307;53.868;11.680;2024-03-08T07:55:08;2.50;99.90
8539;DHT22;4307;53.868;11.680;2024-03-08T07:57:35;2.60;99.90
8539;DHT22;4307;53.868;11.680;2024-03-08T08:00:04;2.60;99.90
8539;DHT22;4307;53.868;11.680;2024-03-08T08:02:33;2.60;99.90
8539;DHT22;4307;53.868;11.680;2024-03-08T08:04:59;2.60;99.90
8539;DHT22;4307;53.868;11.680;2024-03-08T08:07:27;2.60;99.90
8539;DHT22;4307;53.868;11.680;2024-03-08T08:09:54;2.70;99.90
8539;DHT22;4307;53.868;11.680;2024-03-08T08:12:21;2.70;99.90
8539;DHT22;4307;53.868;11.680;2024-03-08T08:14:47;2.70;99.90
8539;DHT22;4307;53.868;11.680;2024-03-08T08:17:14;2.70;99.90
8539;DHT22;4307;53.868;11.680;2024-03-08T08:19:41;2.80;99.90
8539;DHT22;4307;53.868;11.680;2024-03-08T08:22:08;2.90;99.90
8539;DHT22;4307;53.868;11.680;2024-03-08T08:24:36;3.00;99.90
8539;DHT22;4307;53.868;11.680;2024-03-08T08:27:03;3.10;99.90
8539;DHT22;4307;53.868;11.680;2024-03-08T08:29:30;3.20;99.90
8539;DHT22;4307;53.868;11.680;2024-03-08T08:31:58;3.20;99.90
8539;DHT22;4307;53.868;11.680;2024-03-08T08:34:25;3.20;99.90
8539;DHT22;4307;53.868;11.680;2024-03-08T08:36:52;3.20;99.90
8539;DHT22;4307;53.868;11.680;2024-03-08T08:39:20;3.10;99.90
8539;DHT22;4307;53.868;11.680;2024-03-08T08:41:49;3.10;99.90
8539;DHT22;4307;53.868;11.680;2024-03-08T08:44:16;3.20;99.90
8539;DHT22;4307;53.868;11.680;2024-03-08T08:46:42;3.40;99.90
8539;DHT22;4307;53.868;11.680;2024-03-08T08:49:09;3.40;99.90
8539;DHT22;4307;53.868;11.680;2024-03-08T08:51:39;3.40;99.90
8539;DHT22;4307;53.868;11.680;2024-03-08T08:54:06;3.60;99.90
8539;DHT22;4307;53.868;11.680;2024-03-08T08:56:33;3.70;99.90
8539;DHT22;4307;53.868;11.680;2024-03-08T08:59:01;4.00;99.90
8539;DHT22;4307;53.868;11.680;2024-03-08T09:01:29;4.20;99.90
8539;DHT22;4307;53.868;11.680;2024-03-08T09:03:55;4.20;99.90
8539;DHT22;4307;53.868;11.680;2024-03-08T09:06:22;4.20;99.90
8539;DHT22;4307;53.868;11.680;2024-03-08T09:08:50;4.20;99.90
8539;DHT22;4307;53.868;11.680;2024-03-08T09:11:18;4.40;99.90
8539;DHT22;4307;53.868;11.680;2024-03-08T09:13:45;4.60;99.90
8539;DHT22;4307;53.868;11.680;2024-03-08T09:16:13;4.80;99.90
8539;DHT22;4307;53.868;11.680;2024-03-08T09:18:40;5.20;99.90
8539;DHT22;4307;53.868;11.680;2024-03-08T09:21:07;5.40;99.90
8539;DHT22;4307;53.868;11.680;2024-03-08T09:23:35;5.40;99.90
8539;DHT22;4307;53.868;11.680;2024-03-08T09:26:02;5.40;99.90
8539;DHT22;4307;53.868;11.680;2024-03-08T09:28:29;5.50;99.90
8539;DHT22;4307;53.868;11.680;2024-03-08T09:30:56;5.50;99.90
8539;DHT22;4307;53.868;11.680;2024-03-08T09:33:25;5.50;99.90
8539;DHT22;4307;53.868;11.680;2024-03-08T09:35:54;5.40;99.90
8539;DHT22;4307;53.868;11.680;2024-03-08T09:38:23;5.50;99.90
8539;DHT22;4307;53.868;11.680;2024-03-08T09:40:50;5.60;99.90
8539;DHT22;4307;53.868;11.680;2024-03-08T09:43:17;5.80;99.90
8539;DHT22;4307;53.868;11.680;2024-03-08T09:45:45;5.80;99.90
8539;DHT22;4307;53.868;11.680;2024-03-08T09:48:16;5.80;99.90
8539;DHT22;4307;53.868;11.680;2024-03-08T09:50:46;5.90;99.90
8539;DHT22;4307;53.868;11.680;2024-03-08T09:53:13;6.00;99.90
8539;DHT22;4307;53.868;11.680;2024-03-08T09:55:40;6.20;99.90
8539;DHT22;4307;53.868;11.680;2024-03-08T09:58:12;6.40;99.90
8539;DHT22;4307;53.868;11.680;2024-03-08T10:00:53;6.70;99.90
8539;DHT22;4307;53.868;11.680;2024-03-08T10:03:20;6.90;99.90
8539;DHT22;4307;53.868;11.680;2024-03-08T10:05:49;7.20;99.90
8539;DHT22;4307;53.868;11.680;2024-03-08T10:08:16;7.30;99.90
8539;DHT22;4307;53.868;11.680;2024-03-08T10:10:43;7.40;99.90
8539;DHT22;4307;53.868;11.680;2024-03-08T10:13:10;7.60;99.90
8539;DHT22;4307;53.868;11.680;2024-03-08T10:15:39;7.70;99.90
8539;DHT22;4307;53.868;11.680;2024-03-08T10:18:06;7.70;99.90
8539;DHT22;4307;53.868;11.680;2024-03-08T10:20:33;7.60;99.90
8539;DHT22;4307;53.868;11.680;2024-03-08T10:23:01;7.50;99.90
8539;DHT22;4307;53.868;11.680;2024-03-08T10:25:30;7.70;99.90
8539;DHT22;4307;53.868;11.680;2024-03-08T10:27:57;8.00;99.90
8539;DHT22;4307;53.868;11.680;2024-03-08T10:30:24;8.20;99.90
8539;DHT22;4307;53.868;11.680;2024-03-08T10:32:50;8.30;99.90
8539;DHT22;4307;53.868;11.680;2024-03-08T10:35:17;8.50;99.90
8539;DHT22;4307;53.868;11.680;2024-03-08T10:37:47;8.60;99.90
8539;DHT22;4307;53.868;11.680;2024-03-08T10:40:18;8.90;99.90
8539;DHT22;4307;53.868;11.680;2024-03-08T10:42:51;9.20;99.90
8539;DHT22;4307;53.868;11.680;2024-03-08T10:45:26;9.30;99.90
8539;DHT22;4307;53.868;11.680;2024-03-08T10:50:47;9.60;99.90
8539;DHT22;4307;53.868;11.680;2024-03-08T10:53:17;9.40;99.90
8539;DHT22;4307;53.868;11.680;2024-03-08T10:55:49;9.50;99.90
8539;DHT22;4307;53.868;11.680;2024-03-08T10:58:19;9.40;99.90
8539;DHT22;4307;53.868;11.680;2024-03-08T11:00:46;9.40;99.90
8539;DHT22;4307;53.868;11.680;2024-03-08T11:03:43;9.50;99.90
8539;DHT22;4307;53.868;11.680;2024-03-08T11:06:14;9.60;99.90
8539;DHT22;4307;53.868;11.680;2024-03-08T11:08:41;9.80;99.90
8539;DHT22;4307;53.868;11.680;2024-03-08T11:11:23;9.80;99.90
8539;DHT22;4307;53.868;11.680;2024-03-08T11:13:52;9.90;99.90
8539;DHT22;4307;53.868;11.680;2024-03-08T11:16:37;10.10;99.90
8539;DHT22;4307;53.868;11.680;2024-03-08T11:19:23;10.20;99.90
8539;DHT22;4307;53.868;11.680;2024-03-08T11:22:00;10.30;99.90
8539;DHT22;4307;53.868;11.680;2024-03-08T11:24:28;10.50;99.90
8539;DHT22;4307;53.868;11.680;2024-03-08T11:27:05;10.70;99.90
8539;DHT22;4307;53.868;11.680;2024-03-08T11:29:36;10.80;99.90
8539;DHT22;4307;53.868;11.680;2024-03-08T11:32:07;11.00;99.90
8539;DHT22;4307;53.868;11.680;2024-03-08T11:34:33;11.00;99.90
8539;DHT22;4307;53.868;11.680;2024-03-08T11:37:00;10.80;99.90
8539;DHT22;4307;53.868;11.680;2024-03-08T11:39:29;10.70;99.90
8539;DHT22;4307;53.868;11.680;2024-03-08T11:41:56;10.40;99.90
8539;DHT22;4307;53.868;11.680;2024-03-08T11:44:27;10.30;99.90
8539;DHT22;4307;53.868;11.680;2024-03-08T11:46:54;10.60;99.90
8539;DHT22;4307;53.868;11.680;2024-03-08T11:49:21;10.60;99.90
8539;DHT22;4307;53.868;11.680;2024-03-08T11:51:51;10.80;99.90
8539;DHT22;4307;53.868;11.680;2024-03-08T11:54:19;10.80;99.90
8539;DHT22;4307;53.868;11.680;2024-03-08T11:56:45;10.70;99.90
8539;DHT22;4307;53.868;11.680;2024-03-08T11:59:13;10.70;99.90
8539;DHT22;4307;53.868;11.680;2024-03-08T12:01:41;10.70;99.90
8539;DHT22;4307;53.868;11.680;2024-03-08T12:04:12;10.60;99.90
8539;DHT22;4307;53.868;11.680;2024-03-08T12:06:39;10.50;99.90
8539;DHT22;4307;53.868;11.680;2024-03-08T12:09:08;10.70;99.90
8539;DHT22;4307;53.868;11.680;2024-03-08T12:11:35;10.70;99.90
8539;DHT22;4307;53.868;11.680;2024-03-08T12:14:02;10.80;99.90
8539;DHT22;4307;53.868;11.680;2024-03-08T12:16:29;10.60;99.90
8539;DHT22;4307;53.868;11.680;2024-03-08T12:18:57;10.30;99.90
8539;DHT22;4307;53.868;11.680;2024-03-08T12:21:26;10.30;99.90
8539;DHT22;4307;53.868;11.680;2024-03-08T12:24:13;10.40;99.90
8539;DHT22;4307;53.868;11.680;2024-03-08T12:26:42;10.50;99.90
8539;DHT22;4307;53.868;11.680;2024-03-08T12:29:16;10.40;99.90
8539;DHT22;4307;53.868;11.680;2024-03-08T12:31:46;10.30;99.90
8539;DHT22;4307;53.868;11.680;2024-03-08T12:34:14;10.10;99.90
8539;DHT22;4307;53.868;11.680;2024-03-08T12:36:47;10.00;99.90
8539;DHT22;4307;53.868;11.680;2024-03-08T12:39:16;9.80;99.90
8539;DHT22;4307;53.868;11.680;2024-03-08T12:41:43;9.70;99.90
8539;DHT22;4307;53.868;11.680;2024-03-08T12:44:10;9.60;99.90
8539;DHT22;4307;53.868;11.680;2024-03-08T12:46:37;9.60;99.90
8539;DHT22;4307;53.868;11.680;2024-03-08T12:49:07;9.80;99.90
8539;DHT22;4307;53.868;11.680;2024-03-08T12:51:36;10.00;99.90
8539;DHT22;4307;53.868;11.680;2024-03-08T12:54:04;10.10;99.90
8539;DHT22;4307;53.868;11.680;2024-03-08T12:56:33;10.30;99.90
8539;DHT22;4307;53.868;11.680;2024-03-08T12:59:00;10.50;99.90
8539;DHT22;4307;53.868;11.680;2024-03-08T13:01:28;10.60;99.90
8539;DHT22;4307;53.868;11.680;2024-03-08T13:03:55;10.70;99.90
8539;DHT22;4307;53.868;11.680;2024-03-08T13:06:22;10.90;99.90
8539;DHT22;4307;53.868;11.680;2024-03-08T13:08:51;10.90;99.90
8539;DHT22;4307;53.868;11.680;2024-03-08T13:11:19;11.00;99.90
8539;DHT22;4307;53.868;11.680;2024-03-08T13:13:45;10.90;99.90
8539;DHT22;4307;53.868;11.680;2024-03-08T13:16:12;11.00;99.90
8539;DHT22;4307;53.868;11.680;2024-03-08T13:18:41;11.10;99.90
8539;DHT22;4307;53.868;11.680;2024-03-08T13:21:08;11.20;99.90
8539;DHT22;4307;53.868;11.680;2024-03-08T13:23:36;11.00;99.90
8539;DHT22;4307;53.868;11.680;2024-03-08T13:26:07;10.70;99.90
8539;DHT22;4307;53.868;11.680;2024-03-08T13:28:34;10.70;99.90
8539;DHT22;4307;53.868;11.680;2024-03-08T13:31:03;10.90;99.90
8539;DHT22;4307;53.868;11.680;2024-03-08T13:33:32;11.30;99.90
8539;DHT22;4307;53.868;11.680;2024-03-08T13:36:01;11.40;99.90
8539;DHT22;4307;53.868;11.680;2024-03-08T13:38:29;11.40;99.90
8539;DHT22;4307;53.868;11.680;2024-03-08T13:40:58;11.50;99.90
8539;DHT22;4307;53.868;11.680;2024-03-08T13:43:26;11.60;99.90
8539;DHT22;4307;53.868;11.680;2024-03-08T13:45:54;11.70;99.90
8539;DHT22;4307;53.868;11.680;2024-03-08T13:48:21;12.00;99.90
8539;DHT22;4307;53.868;11.680;2024-03-08T13:50:48;12.20;99.90
8539;DHT22;4307;53.868;11.680;2024-03-08T13:53:15;12.50;99.90
8539;DHT22;4307;53.868;11.680;2024-03-08T13:55:42;12.60;99.90
8539;DHT22;4307;53.868;11.680;2024-03-08T13:58:08;12.60;99.90
8539;DHT22;4307;53.868;11.680;2024-03-08T14:00:37;12.50;99.90
8539;DHT22;4307;53.868;11.680;2024-03-08T14:03:04;12.50;99.90
8539;DHT22;4307;53.868;11.680;2024-03-08T14:05:31;12.20;99.90
8539;DHT22;4307;53.868;11.680;2024-03-08T14:08:00;12.10;99.90
8539;DHT22;4307;53.868;11.680;2024-03-08T14:10:29;12.40;99.90
8539;DHT22;4307;53.868;11.680;2024-03-08T14:12:56;12.50;99.90
8539;DHT22;4307;53.868;11.680;2024-03-08T14:15:23;12.60;99.90
8539;DHT22;4307;53.868;11.680;2024-03-08T14:17:55;12.50;99.90
8539;DHT22;4307;53.868;11.680;2024-03-08T14:20:23;12.30;99.90
8539;DHT22;4307;53.868;11.680;2024-03-08T14:22:50;12.20;99.90
8539;DHT22;4307;53.868;11.680;2024-03-08T14:25:17;12.30;99.90
8539;DHT22;4307;53.868;11.680;2024-03-08T14:27:45;12.10;99.90
8539;DHT22;4307;53.868;11.680;2024-03-08T14:30:12;12.00;99.90
8539;DHT22;4307;53.868;11.680;2024-03-08T14:32:39;12.10;99.90
8539;DHT22;4307;53.868;11.680;2024-03-08T14:35:08;12.00;99.90
8539;DHT22;4307;53.868;11.680;2024-03-08T14:37:36;12.10;99.90
8539;DHT22;4307;53.868;11.680;2024-03-08T14:40:04;11.90;99.90
8539;DHT22;4307;53.868;11.680;2024-03-08T14:42:31;11.80;99.90
8539;DHT22;4307;53.868;11.680;2024-03-08T14:44:58;11.40;99.70
8539;DHT22;4307;53.868;11.680;2024-03-08T14:47:25;11.00;99.60
8539;DHT22;4307;53.868;11.680;2024-03-08T14:49:52;10.70;99.90
8539;DHT22;4307;53.868;11.680;2024-03-08T14:52:22;10.50;99.90
8539;DHT22;4307;53.868;11.680;2024-03-08T14:54:54;10.30;99.90
8539;DHT22;4307;53.868;11.680;2024-03-08T14:57:22;10.00;99.90
8539;DHT22;4307;53.868;11.680;2024-03-08T14:59:48;9.80;99.90
8539;DHT22;4307;53.868;11.680;2024-03-08T15:02:15;9.70;99.90
8539;DHT22;4307;53.868;11.680;2024-03-08T15:04:46;9.60;99.90
8539;DHT22;4307;53.868;11.680;2024-03-08T15:07:18;9.60;99.90
8539;DHT22;4307;53.868;11.680;2024-03-08T15:09:46;9.50;99.90
8539;DHT22;4307;53.868;11.680;2024-03-08T15:12:13;9.50;99.90
8539;DHT22;4307;53.868;11.680;2024-03-08T15:14:40;9.50;99.90
8539;DHT22;4307;53.868;11.680;2024-03-08T15:17:09;9.50;99.90
8539;DHT22;4307;53.868;11.680;2024-03-08T15:19:46;9.40;99.90
8539;DHT22;4307;53.868;11.680;2024-03-08T15:22:13;9.30;99.90
8539;DHT22;4307;53.868;11.680;2024-03-08T15:24:40;9.30;99.90
8539;DHT22;4307;53.868;11.680;2024-03-08T15:27:10;9.30;99.90
8539;DHT22;4307;53.868;11.680;2024-03-08T15:29:36;9.20;99.90
8539;DHT22;4307;53.868;11.680;2024-03-08T15:32:03;9.20;99.90
8539;DHT22;4307;53.868;11.680;2024-03-08T15:34:32;9.20;99.90
8539;DHT22;4307;53.868;11.680;2024-03-08T15:37:03;9.20;99.90
8539;DHT22;4307;53.868;11.680;2024-03-08T15:39:30;9.10;99.90
8539;DHT22;4307;53.868;11.680;2024-03-08T15:41:58;9.10;99.90
8539;DHT22;4307;53.868;11.680;2024-03-08T15:44:27;9.10;99.90
8539;DHT22;4307;53.868;11.680;2024-03-08T15:46:53;9.00;99.90
8539;DHT22;4307;53.868;11.680;2024-03-08T15:49:20;9.00;99.90
8539;DHT22;4307;53.868;11.680;2024-03-08T15:51:47;9.00;99.90
8539;DHT22;4307;53.868;11.680;2024-03-08T15:54:13;9.00;99.90
8539;DHT22;4307;53.868;11.680;2024-03-08T15:56:40;9.00;99.90
8539;DHT22;4307;53.868;11.680;2024-03-08T15:59:07;8.90;99.90
8539;DHT22;4307;53.868;11.680;2024-03-08T16:01:35;8.90;99.90
8539;DHT22;4307;53.868;11.680;2024-03-08T16:04:02;8.90;99.90
8539;DHT22;4307;53.868;11.680;2024-03-08T16:06:29;8.80;99.90